Historique des mesures à Cassis (13260), France
Quotidien Résumé Janvier 25, 2017 Unités:  US    Métrique   Métrique/US
« Précédent (Jour)
Suivant (Jour) »
Quotidien Hebdomadaire Mensuel Annuel Période au choix
  Maximum: Minimum: Moyenne:
Température: 32 °F 38.3 °F 41.7 °F
Point de rosée: 32 °F 25.2 °F 32.2 °F
Humidité: Humidity % 55 % 65 %
Vitesse du vent: WindSpeedKMH mph 0.0 mph 1.5 mph
Rafales: WindSpeedGustKMH mph - -
Vent:- - SSW
Pression: 0 in 29.9 in -
Précipitations: 238.76 in    
Historical Graphs
 
 
Mesures pour : Janvier 25, 2017
Heure Temperature Point de rosée Pression Vent Vitesse du vent Rafales Humidité Pluie (par heure) Conditions
32 °F 32 °F 0 in Calm     Humidity % 0 in SoftwareType W/m2
00:10 41.7 °F 26.6 °F 29.9 in Calm   4.0 mph 55 % 0 in open2300-1.11 W/m2
01:11 41.4 °F 26.8 °F 29.9 in North 4.7 mph 8.2 mph 56 % 0 in open2300-1.11 W/m2
02:10 40.8 °F 26.2 °F 29.9 in NNW 3.5 mph 3.5 mph 56 % 0 in open2300-1.11 W/m2
03:11 41.2 °F 26.6 °F 30 in Calm     56 % 0 in open2300-1.11 W/m2
04:10 39.7 °F 25.5 °F 29.9 in NNW 4.0 mph 14.0 mph 57 % 0 in open2300-1.11 W/m2
05:11 39.2 °F 26.4 °F 30 in Calm     60 % 0 in open2300-1.11 W/m2
06:10 38.3 °F 25.2 °F 30 in NNW 4.0 mph 5.5 mph 59 % 0 in open2300-1.11 W/m2
07:11 38.3 °F 25.5 °F 30 in NNW 4.0 mph 4.0 mph 60 % 0 in open2300-1.11 W/m2
08:10 39 °F 25.3 °F 30 in Calm     58 % 0 in open2300-1.11 W/m2
09:11 39.4 °F 25.7 °F 30 in Calm     58 % 0 in open2300-1.11 W/m2
10:10 39.9 °F 25.9 °F 30.1 in Calm   6.8 mph 57 % 0 in open2300-1.11 W/m2
11:11 40.5 °F 27.7 °F 30.1 in North 3.5 mph 4.7 mph 60 % 0 in open2300-1.11 W/m2
12:10 39.6 °F 31.8 °F 30.1 in NNW 12.2 mph 12.2 mph 74 % 12.7 in open2300-1.11 W/m2
13:11 40.1 °F 33.8 °F 30 in Calm     78 % 63.5 in open2300-1.11 W/m2
14:10 39.7 °F 34.3 °F 30 in Calm     81 % 76.2 in open2300-1.11 W/m2
15:11 42.1 °F 37.6 °F 30 in Calm   6.8 mph 84 % 76.2 in open2300-1.11 W/m2
16:10 43 °F 38.5 °F 30 in Calm     84 % 0 in open2300-1.11 W/m2
17:11 45.7 °F 40.8 °F 30 in North 1.1 mph 1.1 mph 83 % 0 in open2300-1.11 W/m2
18:10 45.3 °F 40.3 °F 30 in Calm     82 % 0 in open2300-1.11 W/m2
19:11 46.6 °F 41.2 °F 30 in Calm     81 % 0 in open2300-1.11 W/m2
20:10 47.8 °F 40.8 °F 30 in Calm     77 % 0 in open2300-1.11 W/m2
21:11 48 °F 40.5 °F 30 in Calm     75 % 0 in open2300-1.11 W/m2
22:10 47.1 °F 39.2 °F 30.1 in Calm     74 % 0 in open2300-1.11 W/m2
23:11 48.4 °F 39.4 °F 30 in Calm     71 % 0 in open2300-1.11 W/m2
Observations météo à CASSIS
WU-History script by Weather Underground - 1 mb